createdAt,value
2019-03-13T21:42:44.660Z,966.6
2019-03-13T21:43:46.291Z,966.7
2019-03-13T21:44:51.869Z,966.7
2019-03-13T21:45:56.755Z,966.7
2019-03-13T21:46:58.317Z,966.5
2019-03-13T21:47:59.679Z,966.7
2019-03-13T21:49:01.017Z,966.7
2019-03-13T21:50:03.401Z,966.8
2019-03-13T21:51:04.683Z,966.8
2019-03-13T21:52:05.968Z,966.7
2019-03-13T21:53:07.306Z,966.8
2019-03-13T21:54:08.557Z,966.7
2019-03-13T21:55:09.849Z,966.8
2019-03-13T21:56:11.515Z,966.8
2019-03-13T21:57:12.777Z,966.7
2019-03-13T21:58:14.143Z,966.9
2019-03-13T21:59:18.807Z,966.8
2019-03-13T22:00:23.399Z,966.8
2019-03-13T22:01:24.954Z,966.9
2019-03-13T22:02:36.455Z,966.8
2019-03-13T22:03:37.857Z,966.8
2019-03-13T22:04:39.129Z,966.9
2019-03-13T22:05:43.375Z,966.7
2019-03-13T22:06:44.668Z,966.8
2019-03-13T22:07:46.378Z,966.7
2019-03-13T22:08:47.996Z,966.8
2019-03-13T22:09:49.285Z,966.8
2019-03-13T22:10:50.769Z,966.8
2019-03-13T22:11:52.356Z,966.8
2019-03-13T22:12:53.658Z,966.9
2019-03-13T22:13:55.443Z,966.8
2019-03-13T22:14:56.849Z,966.8
2019-03-13T22:15:59.705Z,966.8
2019-03-13T22:17:00.979Z,966.6
2019-03-13T22:18:02.229Z,966.9
2019-03-13T22:19:05.520Z,966.9
2019-03-13T22:20:06.779Z,967
2019-03-13T22:21:08.035Z,967
2019-03-13T22:22:09.717Z,967.1
2019-03-13T22:23:11.735Z,967.2
2019-03-13T22:24:13.047Z,967.1
2019-03-13T22:25:14.394Z,967.1
2019-03-13T22:26:15.679Z,967.1
2019-03-13T22:27:17.296Z,967.1
2019-03-13T22:28:18.564Z,967.1
2019-03-13T22:29:19.903Z,967
2019-03-13T22:30:21.350Z,967.1
2019-03-13T22:31:22.623Z,967.1
2019-03-13T22:32:23.925Z,967.2
2019-03-13T22:33:25.188Z,967.2
2019-03-13T22:34:26.761Z,967.2
2019-03-13T22:35:28.053Z,967.2
2019-03-13T22:36:29.339Z,967.2
2019-03-13T22:37:30.601Z,967.2
2019-03-13T22:38:34.367Z,967.3
2019-03-13T22:39:37.871Z,967.2
2019-03-13T22:40:39.260Z,967.2
2019-03-13T22:41:40.557Z,967
2019-03-13T22:42:41.805Z,967.1
2019-03-13T22:43:45.656Z,967.2
2019-03-13T22:44:46.982Z,967.2
2019-03-13T22:45:48.328Z,967.1
2019-03-13T22:46:51.111Z,967.1
2019-03-13T22:47:55.415Z,967.2
2019-03-13T22:48:59.356Z,967.1
2019-03-13T22:50:03.381Z,967.2
2019-03-13T22:51:04.647Z,967.3
2019-03-13T22:52:07.887Z,967.2
2019-03-13T22:53:09.161Z,967.2
2019-03-13T22:54:10.551Z,967.3
2019-03-13T22:55:11.896Z,967.2
2019-03-13T22:56:13.160Z,967.5
2019-03-13T22:57:14.443Z,967.5
2019-03-13T22:58:15.714Z,967.5
2019-03-13T22:59:16.992Z,967.4
2019-03-13T23:00:18.303Z,967.5
2019-03-13T23:01:19.678Z,967.5
2019-03-13T23:02:21.016Z,967.3
2019-03-13T23:03:22.315Z,967.6
2019-03-13T23:04:23.652Z,967.6
2019-03-13T23:05:26.286Z,967.5
2019-03-13T23:06:28.689Z,967.7
2019-03-13T23:07:33.369Z,967.5
2019-03-13T23:08:34.824Z,967.6
2019-03-13T23:09:36.365Z,967.7
2019-03-13T23:10:40.258Z,967.7
2019-03-13T23:11:41.531Z,967.5
2019-03-13T23:12:42.806Z,967.5
2019-03-13T23:13:44.062Z,967.6
2019-03-13T23:14:45.328Z,967.7
2019-03-13T23:15:46.639Z,967.6
2019-03-13T23:16:47.924Z,967.5
2019-03-13T23:17:52.242Z,967.6
2019-03-13T23:18:53.509Z,967.7
2019-03-13T23:19:54.761Z,967.6
2019-03-13T23:20:56.042Z,967.7
2019-03-13T23:21:57.335Z,967.6
2019-03-13T23:22:58.594Z,967.7
2019-03-13T23:23:59.855Z,967.7
2019-03-13T23:25:01.117Z,967.8
2019-03-13T23:26:02.418Z,967.8
2019-03-13T23:27:03.714Z,967.8
2019-03-13T23:28:04.973Z,967.7
2019-03-13T23:29:06.230Z,967.8
2019-03-13T23:30:07.512Z,967.8
2019-03-13T23:31:09.000Z,967.7
2019-03-13T23:32:10.631Z,967.6
2019-03-13T23:33:11.907Z,967.7
2019-03-13T23:34:13.160Z,967.7
2019-03-13T23:35:14.428Z,967.6
2019-03-13T23:36:18.266Z,967.5
2019-03-13T23:37:19.531Z,967.7
2019-03-13T23:38:20.810Z,967.7
2019-03-13T23:39:22.078Z,967.7
2019-03-13T23:40:23.349Z,967.8
2019-03-13T23:41:24.670Z,967.8
2019-03-13T23:42:25.940Z,967.7
2019-03-13T23:43:27.212Z,967.2
2019-03-13T23:44:28.478Z,967.8
2019-03-13T23:45:29.738Z,967.7
2019-03-13T23:46:31.046Z,967.8
2019-03-13T23:47:32.332Z,967.9
2019-03-13T23:48:33.584Z,967.9
2019-03-13T23:49:34.870Z,967.9
2019-03-13T23:50:36.116Z,967.7
2019-03-13T23:51:37.404Z,967.8
2019-03-13T23:52:38.872Z,967.9
2019-03-13T23:53:40.132Z,967.9
2019-03-13T23:54:41.386Z,967.7
2019-03-13T23:55:42.668Z,968
2019-03-13T23:56:43.968Z,968
2019-03-13T23:57:45.611Z,968
2019-03-13T23:58:46.890Z,968
2019-03-13T23:59:48.185Z,968.1
